Stet, Missouri
Current Conditions -  °F | °C
As of 6:35 PM on Sunday 23 Nov 2014 (Local Time) from KGPH Reporting Station
Heavy Rain Heavy Rain  
Wind Chill: 37°   Ceiling: 1300
Heat Index: 45°   Visibility: 3mi
Dew Point: 43°   Wind: 18mph
Humidity: 93%   Direction: 330°NNW
Pressure: 29.39"   Gusts: 24mph
Location:  39.42°N, 93.76°W
Report Text: KGPH 240035Z AUTO 33016G21KT 3SM +RA BKN013 BKN019 OVC027 07/06 A2939 RMK AO2
Loading
Personal Weather Stations






























Interactive Weather Map New forecast layout! Learn more

10-Day Weather Forecast

Advertisements
Track Severe Weather on mobile